createdAt,value
2017-09-27T00:01:51.781Z,13.73
2017-09-27T00:04:18.973Z,12.63
2017-09-27T00:06:45.417Z,12.35
2017-09-27T00:09:12.615Z,12.75
2017-09-27T00:11:39.107Z,14.02
2017-09-27T00:14:05.541Z,13.32
2017-09-27T00:16:32.093Z,12.37
2017-09-27T00:18:58.542Z,11.73
2017-09-27T00:21:24.988Z,12.50
2017-09-27T00:23:51.438Z,11.55
2017-09-27T00:26:18.629Z,12.90
2017-09-27T00:28:45.093Z,11.80
2017-09-27T00:31:11.523Z,13.35
2017-09-27T00:33:38.000Z,13.23
2017-09-27T00:36:04.489Z,13.45
2017-09-27T00:38:30.952Z,12.18
2017-09-27T00:40:58.931Z,12.70
2017-09-27T00:43:25.365Z,13.23
2017-09-27T00:45:51.825Z,12.07
2017-09-27T00:48:19.053Z,13.23
2017-09-27T00:50:46.252Z,13.90
2017-09-27T00:53:13.637Z,13.35
2017-09-27T00:55:40.906Z,13.20
2017-09-27T00:58:08.136Z,12.00
2017-09-27T01:00:34.616Z,12.80
2017-09-27T01:03:01.059Z,13.95
2017-09-27T01:05:27.612Z,12.50
2017-09-27T01:07:54.045Z,14.10
2017-09-27T01:10:20.577Z,13.52
2017-09-27T01:12:47.069Z,14.23
2017-09-27T01:15:13.528Z,13.55
2017-09-27T01:17:39.994Z,14.00
2017-09-27T01:20:06.448Z,12.15
2017-09-27T01:22:33.666Z,12.07
2017-09-27T01:25:00.167Z,13.27
2017-09-27T01:27:26.649Z,12.88
2017-09-27T01:29:53.152Z,12.25
2017-09-27T01:32:19.642Z,13.52
2017-09-27T01:34:46.093Z,12.90
2017-09-27T01:37:13.374Z,13.25
2017-09-27T01:39:39.833Z,12.35
2017-09-27T01:42:06.317Z,14.02
2017-09-27T01:44:33.562Z,12.48
2017-09-27T01:47:00.795Z,13.00
2017-09-27T01:49:27.238Z,12.20
2017-09-27T01:51:54.489Z,11.50
2017-09-27T01:54:21.706Z,12.18
2017-09-27T01:56:48.228Z,13.65
2017-09-27T01:59:14.685Z,12.55
2017-09-27T02:01:41.157Z,12.20
2017-09-27T02:04:08.404Z,12.68
2017-09-27T02:06:35.606Z,13.62
2017-09-27T02:09:02.123Z,14.20
2017-09-27T02:11:28.614Z,15.32
2017-09-27T02:13:55.033Z,13.25
2017-09-27T02:16:21.482Z,14.50
2017-09-27T02:18:48.688Z,14.65
2017-09-27T02:21:15.096Z,15.65
2017-09-27T02:23:42.286Z,12.85
2017-09-27T02:26:08.724Z,14.50
2017-09-27T02:28:35.146Z,13.25
2017-09-27T02:31:01.598Z,13.93
2017-09-27T02:33:27.999Z,14.65
2017-09-27T02:35:54.474Z,14.35
2017-09-27T02:38:21.692Z,13.95
2017-09-27T02:40:48.127Z,13.18
2017-09-27T02:43:14.563Z,13.60
2017-09-27T02:45:40.987Z,13.35
2017-09-27T02:48:08.154Z,13.10
2017-09-27T02:50:34.576Z,11.95
2017-09-27T02:53:01.010Z,13.40
2017-09-27T02:55:27.434Z,13.52
2017-09-27T02:57:53.849Z,14.70
2017-09-27T03:00:20.261Z,14.70
2017-09-27T03:02:46.714Z,14.87
2017-09-27T03:05:13.166Z,13.85
2017-09-27T03:07:39.598Z,13.40
2017-09-27T03:10:06.001Z,13.80
2017-09-27T03:12:32.476Z,13.62
2017-09-27T03:14:58.878Z,13.40
2017-09-27T03:17:25.313Z,15.00
2017-09-27T03:19:51.749Z,14.13
2017-09-27T03:22:18.930Z,15.75
2017-09-27T03:24:45.336Z,16.02
2017-09-27T03:27:11.785Z,14.20
2017-09-27T03:29:38.255Z,16.45
2017-09-27T03:32:04.686Z,16.65
2017-09-27T03:34:31.102Z,15.68
2017-09-27T03:36:57.537Z,16.70
2017-09-27T03:39:24.734Z,15.73
2017-09-27T03:41:51.897Z,17.08
2017-09-27T03:44:18.295Z,15.30
2017-09-27T03:46:44.737Z,15.95
2017-09-27T03:49:11.185Z,15.85
2017-09-27T03:51:37.626Z,15.45
2017-09-27T03:54:04.094Z,15.32
2017-09-27T03:56:30.547Z,17.05
2017-09-27T03:58:57.042Z,16.77
2017-09-27T04:01:23.466Z,13.55
2017-09-27T04:03:49.889Z,13.15
2017-09-27T04:06:16.313Z,12.25
2017-09-27T04:08:42.772Z,13.07
2017-09-27T04:11:09.221Z,13.77
2017-09-27T04:13:35.629Z,12.93
2017-09-27T04:16:02.060Z,13.35
2017-09-27T04:18:28.477Z,13.05
2017-09-27T04:20:55.633Z,12.65
2017-09-27T04:23:22.074Z,13.75
2017-09-27T04:25:48.524Z,13.70
2017-09-27T04:28:14.969Z,13.60
2017-09-27T04:30:41.388Z,13.50
2017-09-27T04:33:07.845Z,14.45
2017-09-27T04:35:34.323Z,14.15
2017-09-27T04:38:00.737Z,13.70
2017-09-27T04:40:27.214Z,14.60
2017-09-27T04:42:53.666Z,13.27
2017-09-27T04:45:20.125Z,14.35
2017-09-27T04:47:46.549Z,15.15
2017-09-27T04:50:12.982Z,14.98
2017-09-27T04:52:39.405Z,14.30
2017-09-27T04:55:05.824Z,17.58
2017-09-27T04:57:32.453Z,15.30
2017-09-27T04:59:58.925Z,14.77
2017-09-27T05:02:25.405Z,15.45
2017-09-27T05:04:51.832Z,16.33
2017-09-27T05:07:18.297Z,15.75
2017-09-27T05:09:44.732Z,15.98
2017-09-27T05:12:11.217Z,14.32
2017-09-27T05:14:37.646Z,16.10
2017-09-27T05:17:04.835Z,16.45
2017-09-27T05:19:31.352Z,16.35
2017-09-27T05:21:57.800Z,14.95
2017-09-27T05:24:24.293Z,14.68
2017-09-27T05:26:51.453Z,16.27
2017-09-27T05:29:17.872Z,15.73
2017-09-27T05:31:44.345Z,14.93
2017-09-27T05:34:10.749Z,14.98
2017-09-27T05:36:37.200Z,16.87
2017-09-27T05:39:03.678Z,14.15
2017-09-27T05:41:30.081Z,16.92
2017-09-27T05:43:56.468Z,16.90
2017-09-27T05:46:22.917Z,17.08
2017-09-27T05:48:49.404Z,17.27
2017-09-27T05:51:15.808Z,17.15
2017-09-27T05:53:42.250Z,16.48
2017-09-27T05:56:08.652Z,16.85
2017-09-27T05:58:35.065Z,16.70
2017-09-27T06:01:02.246Z,18.90
2017-09-27T06:03:29.205Z,15.85
2017-09-27T06:05:55.638Z,18.30
2017-09-27T06:08:22.094Z,17.45
2017-09-27T06:10:48.537Z,18.05
2017-09-27T06:13:14.973Z,19.10
2017-09-27T06:15:41.390Z,19.23
2017-09-27T06:18:07.812Z,17.33
2017-09-27T06:20:34.249Z,18.33
2017-09-27T06:23:00.694Z,18.35
2017-09-27T06:25:27.925Z,19.48
2017-09-27T06:27:54.361Z,18.50
2017-09-27T06:30:20.954Z,19.20
2017-09-27T06:32:48.118Z,19.30
2017-09-27T06:35:14.556Z,18.08
2017-09-27T06:37:41.131Z,18.92
2017-09-27T06:40:07.585Z,17.92
2017-09-27T06:42:34.749Z,18.77
2017-09-27T06:45:01.209Z,21.00
2017-09-27T06:47:27.674Z,21.75
2017-09-27T06:49:54.099Z,20.55
2017-09-27T06:52:20.541Z,18.95
2017-09-27T06:54:46.945Z,19.70
2017-09-27T06:57:13.328Z,20.95
2017-09-27T06:59:39.761Z,19.73
2017-09-27T07:02:06.961Z,20.48
2017-09-27T07:04:33.420Z,18.95
2017-09-27T07:06:59.841Z,20.27
2017-09-27T07:09:26.345Z,18.92
2017-09-27T07:11:52.790Z,18.33
2017-09-27T07:14:19.219Z,17.40
2017-09-27T07:16:45.649Z,18.23
2017-09-27T07:19:12.099Z,15.70
2017-09-27T07:21:38.520Z,15.90
2017-09-27T07:24:04.920Z,15.32
2017-09-27T07:26:32.099Z,16.33
2017-09-27T07:28:58.594Z,18.23
2017-09-27T07:31:25.003Z,15.30
2017-09-27T07:33:51.413Z,15.23
2017-09-27T07:36:17.844Z,13.85
2017-09-27T07:38:44.296Z,16.40
2017-09-27T07:41:10.765Z,14.43
2017-09-27T07:43:37.928Z,13.18
2017-09-27T07:46:05.085Z,15.45
2017-09-27T07:48:31.536Z,14.87
2017-09-27T07:50:58.076Z,16.62
2017-09-27T07:53:24.536Z,15.30
2017-09-27T07:55:50.964Z,15.52
2017-09-27T07:58:17.364Z,16.87
2017-09-27T08:00:43.811Z,16.95
2017-09-27T08:03:10.278Z,17.48
2017-09-27T08:05:36.692Z,16.70
2017-09-27T08:08:03.180Z,17.90
2017-09-27T08:10:30.326Z,17.52
2017-09-27T08:12:57.508Z,17.37
2017-09-27T08:15:23.930Z,16.12
2017-09-27T08:17:50.449Z,15.80
2017-09-27T08:20:17.637Z,15.95
2017-09-27T08:22:44.078Z,14.68
2017-09-27T08:25:10.522Z,14.38
2017-09-27T08:27:36.951Z,14.10
2017-09-27T08:30:03.360Z,14.25
2017-09-27T08:32:29.830Z,13.50
2017-09-27T08:34:56.233Z,14.95
2017-09-27T08:37:22.696Z,14.45
2017-09-27T08:39:49.121Z,14.10
2017-09-27T08:42:15.540Z,14.30
2017-09-27T08:44:42.006Z,13.00
2017-09-27T08:47:08.399Z,15.13
2017-09-27T08:49:34.804Z,13.98
2017-09-27T08:52:01.220Z,14.32
2017-09-27T08:54:27.640Z,12.02
2017-09-27T08:56:54.831Z,13.43
2017-09-27T08:59:21.276Z,14.43
2017-09-27T09:01:47.700Z,16.10
2017-09-27T09:04:14.114Z,14.20
2017-09-27T09:06:40.529Z,13.98
2017-09-27T09:09:06.998Z,14.35
2017-09-27T09:11:33.445Z,13.40
2017-09-27T09:13:59.850Z,13.93
2017-09-27T09:16:26.359Z,12.48
2017-09-27T09:18:53.508Z,10.57
2017-09-27T09:21:20.687Z,12.63
2017-09-27T09:23:47.105Z,10.60
2017-09-27T09:26:14.261Z,11.95
2017-09-27T09:28:40.689Z,12.15
2017-09-27T09:31:07.116Z,12.10
2017-09-27T09:33:33.567Z,13.23
2017-09-27T09:36:00.001Z,12.30
2017-09-27T09:38:26.477Z,11.50
2017-09-27T09:40:52.928Z,10.68
2017-09-27T09:43:19.386Z,10.07
2017-09-27T09:45:45.810Z,10.13
2017-09-27T09:48:12.260Z,12.10
2017-09-27T09:50:38.703Z,10.65
2017-09-27T09:53:05.133Z,12.63
2017-09-27T09:55:31.545Z,13.45
2017-09-27T09:57:58.717Z,11.65
2017-09-27T10:00:25.134Z,9.70
2017-09-27T10:02:51.577Z,8.18
2017-09-27T10:05:18.062Z,7.75
2017-09-27T10:07:44.530Z,9.52
2017-09-27T10:10:10.929Z,7.47
2017-09-27T10:12:37.425Z,7.82
2017-09-27T10:15:03.897Z,7.90
2017-09-27T10:17:30.355Z,9.60
2017-09-27T10:19:56.813Z,9.60
2017-09-27T10:22:23.288Z,8.77
2017-09-27T10:24:49.704Z,9.90
2017-09-27T10:27:16.186Z,8.65
2017-09-27T10:29:43.369Z,9.55
2017-09-27T10:32:09.786Z,8.55
2017-09-27T10:34:36.222Z,9.25
2017-09-27T10:37:02.621Z,11.50
2017-09-27T10:39:29.126Z,11.23
2017-09-27T10:41:55.545Z,10.00
2017-09-27T10:44:21.969Z,9.65
2017-09-27T10:46:48.417Z,9.00
2017-09-27T10:49:14.841Z,11.90
2017-09-27T10:51:41.262Z,10.48
2017-09-27T10:54:07.757Z,9.13
2017-09-27T10:56:34.912Z,9.43
2017-09-27T10:59:01.343Z,10.32
2017-09-27T11:01:28.501Z,9.38
2017-09-27T11:03:54.934Z,8.93
2017-09-27T11:06:21.385Z,9.00
2017-09-27T11:08:47.809Z,7.68
2017-09-27T11:11:14.236Z,7.68
2017-09-27T11:13:41.433Z,8.82
2017-09-27T11:16:07.848Z,9.10
2017-09-27T11:18:34.270Z,7.90
2017-09-27T11:21:00.709Z,8.57
2017-09-27T11:23:27.153Z,9.18
2017-09-27T11:25:53.581Z,10.45
2017-09-27T11:28:20.045Z,11.68
2017-09-27T11:30:46.478Z,14.23
2017-09-27T11:33:12.950Z,10.30
2017-09-27T11:35:39.459Z,9.90
2017-09-27T11:38:05.901Z,7.10
2017-09-27T11:40:32.341Z,7.20
2017-09-27T11:42:59.516Z,6.05
2017-09-27T11:45:25.990Z,6.87
2017-09-27T11:47:53.213Z,5.37
2017-09-27T11:50:19.621Z,7.35
2017-09-27T11:52:46.089Z,5.50
2017-09-27T11:55:12.519Z,4.60
2017-09-27T11:57:38.977Z,4.65
2017-09-27T12:00:05.436Z,5.00
2017-09-27T12:02:31.895Z,4.40
2017-09-27T12:04:58.338Z,4.18
2017-09-27T12:07:24.797Z,5.05
2017-09-27T12:09:51.210Z,5.20
2017-09-27T12:12:17.613Z,5.03
2017-09-27T12:14:44.066Z,5.20
2017-09-27T12:17:10.488Z,5.30
2017-09-27T12:19:36.914Z,4.35
2017-09-27T12:22:03.331Z,4.70
2017-09-27T12:24:30.534Z,4.60
2017-09-27T12:26:56.953Z,3.72
2017-09-27T12:29:23.356Z,4.55
2017-09-27T12:31:50.585Z,3.95
2017-09-27T12:34:17.004Z,4.43
2017-09-27T12:36:43.480Z,5.32
2017-09-27T12:39:09.944Z,4.72
2017-09-27T12:41:36.370Z,4.03
2017-09-27T12:44:02.818Z,4.20
2017-09-27T12:46:29.282Z,4.35
2017-09-27T12:48:55.721Z,4.62
2017-09-27T12:51:22.194Z,4.65
2017-09-27T12:53:48.637Z,4.50
2017-09-27T12:56:15.117Z,3.80
2017-09-27T12:58:41.625Z,4.20
2017-09-27T13:01:08.082Z,4.95
2017-09-27T13:03:35.270Z,3.80
2017-09-27T13:06:01.751Z,4.12
2017-09-27T13:08:28.244Z,4.25
2017-09-27T13:10:54.653Z,3.85
2017-09-27T13:13:21.858Z,4.12
2017-09-27T13:15:48.299Z,3.70
2017-09-27T13:18:14.778Z,3.92
2017-09-27T13:20:41.263Z,4.28
2017-09-27T13:23:07.706Z,3.97
2017-09-27T13:25:34.141Z,4.55
2017-09-27T13:28:00.605Z,4.25
2017-09-27T13:30:27.743Z,3.70
2017-09-27T13:32:54.918Z,4.10
2017-09-27T13:35:21.361Z,3.60
2017-09-27T13:37:47.802Z,3.45
2017-09-27T13:40:14.208Z,4.07
2017-09-27T13:42:40.653Z,4.18
2017-09-27T13:45:07.065Z,3.30
2017-09-27T13:47:33.558Z,3.78
2017-09-27T13:50:00.014Z,3.60
2017-09-27T13:52:26.462Z,3.37
2017-09-27T13:54:53.657Z,2.97
2017-09-27T13:57:20.099Z,3.92
2017-09-27T13:59:46.517Z,3.53
2017-09-27T14:02:13.049Z,3.80
2017-09-27T14:04:39.448Z,3.62
2017-09-27T14:07:06.600Z,3.30
2017-09-27T14:09:33.795Z,3.15
2017-09-27T14:12:00.218Z,3.25
2017-09-27T14:14:26.627Z,3.35
2017-09-27T14:16:53.107Z,3.62
2017-09-27T14:19:19.532Z,3.47
2017-09-27T14:21:45.941Z,3.62
2017-09-27T14:24:12.390Z,3.95
2017-09-27T14:26:38.784Z,3.90
2017-09-27T14:29:05.218Z,4.03
2017-09-27T14:31:32.418Z,3.80
2017-09-27T14:33:58.843Z,3.70
2017-09-27T14:36:25.269Z,3.60
2017-09-27T14:38:51.688Z,3.70
2017-09-27T14:41:18.113Z,3.60
2017-09-27T14:43:44.602Z,3.22
2017-09-27T14:46:11.765Z,3.40
2017-09-27T14:48:38.249Z,3.40
2017-09-27T14:51:04.688Z,3.25
2017-09-27T14:53:31.175Z,3.58
2017-09-27T14:55:57.604Z,3.45
2017-09-27T14:58:24.838Z,3.92
2017-09-27T15:00:52.029Z,3.50
2017-09-27T15:03:18.474Z,3.90
2017-09-27T15:05:44.932Z,3.05
2017-09-27T15:08:11.347Z,3.10
2017-09-27T15:10:37.795Z,3.85
2017-09-27T15:13:04.232Z,3.80
2017-09-27T15:15:30.709Z,4.10
2017-09-27T15:17:57.886Z,3.80
2017-09-27T15:20:24.349Z,3.75
2017-09-27T15:22:51.494Z,4.37
2017-09-27T15:25:17.933Z,4.20
2017-09-27T15:27:44.383Z,3.72
2017-09-27T15:30:10.835Z,3.80
2017-09-27T15:32:37.265Z,3.75
2017-09-27T15:35:04.459Z,3.50
2017-09-27T15:37:30.894Z,3.50
2017-09-27T15:39:58.081Z,4.10
2017-09-27T15:42:24.578Z,3.42
2017-09-27T15:44:51.038Z,3.90
2017-09-27T15:47:17.487Z,4.25
2017-09-27T15:49:44.703Z,10.00
2017-09-27T15:52:11.103Z,4.10
2017-09-27T15:54:37.574Z,3.80
2017-09-27T15:57:04.021Z,3.67
2017-09-27T15:59:30.563Z,4.10
2017-09-27T16:01:57.022Z,3.67
2017-09-27T16:04:23.460Z,3.90
2017-09-27T16:06:50.656Z,3.80
2017-09-27T16:09:17.089Z,4.43
2017-09-27T16:11:43.505Z,3.70
2017-09-27T16:14:09.953Z,3.83
2017-09-27T16:16:36.381Z,4.15
2017-09-27T16:19:02.834Z,3.50
2017-09-27T16:21:29.282Z,3.47
2017-09-27T16:23:55.750Z,3.95
2017-09-27T16:26:22.923Z,4.20
2017-09-27T16:28:49.397Z,4.15
2017-09-27T16:31:15.857Z,4.53
2017-09-27T16:33:43.021Z,4.37
2017-09-27T16:36:09.513Z,4.37
2017-09-27T16:38:36.678Z,4.57
2017-09-27T16:41:03.884Z,4.53
2017-09-27T16:43:30.345Z,4.35
2017-09-27T16:45:56.807Z,4.90
2017-09-27T16:48:23.986Z,4.47
2017-09-27T16:50:50.397Z,4.68
2017-09-27T16:53:16.881Z,5.68
2017-09-27T16:55:43.298Z,5.57
2017-09-27T16:58:09.777Z,4.35
2017-09-27T17:00:36.993Z,6.15
2017-09-27T17:03:03.446Z,5.00
2017-09-27T17:05:29.910Z,6.78
2017-09-27T17:07:56.345Z,6.57
2017-09-27T17:10:22.828Z,5.90
2017-09-27T17:12:49.297Z,5.80
2017-09-27T17:15:16.448Z,4.87
2017-09-27T17:17:42.892Z,4.10
2017-09-27T17:20:10.049Z,4.43
2017-09-27T17:22:36.461Z,5.18
2017-09-27T17:25:03.692Z,5.65
2017-09-27T17:27:30.178Z,6.78
2017-09-27T17:29:56.646Z,6.35
2017-09-27T17:32:23.077Z,6.70
2017-09-27T17:34:50.412Z,5.43
2017-09-27T17:37:16.894Z,5.93
2017-09-27T17:39:43.352Z,9.15
2017-09-27T17:42:09.834Z,22.05
2017-09-27T17:44:36.291Z,23.02
2017-09-27T17:47:02.714Z,21.87
2017-09-27T17:49:29.192Z,14.32
2017-09-27T17:51:55.635Z,11.55
2017-09-27T17:54:22.133Z,8.88
2017-09-27T17:56:49.325Z,9.27
2017-09-27T17:59:15.750Z,7.37
2017-09-27T18:01:42.258Z,5.93
2017-09-27T18:04:10.330Z,8.35
2017-09-27T18:06:41.807Z,8.07
2017-09-27T18:09:13.247Z,10.52
2017-09-27T18:11:45.882Z,10.75
2017-09-27T18:27:30.886Z,8.95
2017-09-27T18:29:57.336Z,10.30
2017-09-27T18:32:23.849Z,9.25
2017-09-27T18:34:50.318Z,9.43
2017-09-27T18:37:16.754Z,9.40
2017-09-27T18:39:43.204Z,9.63
2017-09-27T18:42:09.642Z,8.63
2017-09-27T18:44:36.107Z,7.57
2017-09-27T18:47:02.563Z,9.38
2017-09-27T18:49:29.018Z,8.35
2017-09-27T18:51:55.594Z,7.43
2017-09-27T18:54:22.809Z,8.20
2017-09-27T18:56:49.270Z,9.15
2017-09-27T18:59:16.545Z,9.38
2017-09-27T19:01:42.989Z,9.10
2017-09-27T19:04:09.433Z,7.82
2017-09-27T19:06:35.907Z,8.10
2017-09-27T19:09:03.196Z,7.90
2017-09-27T19:11:30.494Z,8.02
2017-09-27T19:13:56.934Z,7.85
2017-09-27T19:16:23.404Z,7.60
2017-09-27T19:18:50.680Z,7.70
2017-09-27T19:21:17.143Z,7.75
2017-09-27T19:23:43.614Z,8.68
2017-09-27T19:26:10.833Z,8.50
2017-09-27T19:28:37.394Z,8.43
2017-09-27T19:31:03.817Z,8.40
2017-09-27T19:33:30.246Z,8.35
2017-09-27T19:35:56.687Z,8.30
2017-09-27T19:38:23.911Z,8.30
2017-09-27T19:40:50.356Z,9.00
2017-09-27T19:43:16.818Z,8.30
2017-09-27T19:45:43.964Z,8.45
2017-09-27T19:48:11.152Z,7.53
2017-09-27T19:50:37.698Z,9.10
2017-09-27T19:53:04.132Z,8.82
2017-09-27T19:55:30.581Z,9.80
2017-09-27T19:57:57.084Z,8.65
2017-09-27T20:00:23.547Z,8.68
2017-09-27T20:02:50.041Z,8.60
2017-09-27T20:05:16.519Z,8.88
2017-09-27T20:07:43.002Z,8.43
2017-09-27T20:10:09.533Z,8.20
2017-09-27T20:12:36.012Z,8.63
2017-09-27T20:15:02.550Z,9.10
2017-09-27T20:17:29.001Z,8.15
2017-09-27T20:19:55.430Z,8.70
2017-09-27T20:22:21.902Z,7.50
2017-09-27T20:24:49.169Z,9.00
2017-09-27T20:27:15.597Z,8.63
2017-09-27T20:29:42.045Z,8.68
2017-09-27T20:32:08.498Z,8.50
2017-09-27T20:34:35.938Z,9.63
2017-09-27T20:37:02.444Z,8.45
2017-09-27T20:39:28.927Z,9.05
2017-09-27T20:41:55.359Z,9.02
2017-09-27T20:44:21.799Z,8.95
2017-09-27T20:46:48.228Z,9.45
2017-09-27T20:49:14.733Z,9.55
2017-09-27T20:51:41.226Z,9.50
2017-09-27T20:54:08.390Z,9.02
2017-09-27T20:56:34.870Z,8.10
2017-09-27T20:59:01.437Z,8.23
2017-09-27T21:01:27.954Z,7.82
2017-09-27T21:03:54.429Z,8.65
2017-09-27T21:06:21.566Z,8.50
2017-09-27T21:08:48.070Z,8.35
2017-09-27T21:11:14.521Z,8.65
2017-09-27T21:13:40.927Z,8.32
2017-09-27T21:16:07.438Z,8.00
2017-09-27T21:18:33.891Z,7.55
2017-09-27T21:21:00.345Z,8.30
2017-09-27T21:23:26.790Z,7.78
2017-09-27T21:25:53.224Z,8.40
2017-09-27T21:28:19.802Z,7.90
2017-09-27T21:30:46.309Z,8.25
2017-09-27T21:33:13.462Z,8.55
2017-09-27T21:35:39.926Z,8.65
2017-09-27T21:38:06.374Z,8.00
2017-09-27T21:40:32.826Z,7.32
2017-09-27T21:42:59.332Z,8.52
2017-09-27T21:45:25.785Z,8.65
2017-09-27T21:47:53.014Z,8.55
2017-09-27T21:50:19.435Z,8.20
2017-09-27T21:52:45.910Z,8.23
2017-09-27T21:55:12.376Z,8.18
2017-09-27T21:57:39.533Z,8.48
2017-09-27T22:00:06.730Z,7.57
2017-09-27T22:02:33.198Z,8.30
2017-09-27T22:05:00.373Z,8.90
2017-09-27T22:07:26.830Z,7.90
2017-09-27T22:09:53.285Z,8.70
2017-09-27T22:12:19.711Z,7.50
2017-09-27T22:14:46.149Z,9.10
2017-09-27T22:17:12.597Z,8.38
2017-09-27T22:19:39.800Z,7.85
2017-09-27T22:22:06.246Z,7.70
2017-09-27T22:24:32.666Z,8.48
2017-09-27T22:26:59.128Z,7.85
2017-09-27T22:29:25.568Z,8.35
2017-09-27T22:31:52.877Z,8.90
2017-09-27T22:34:19.324Z,8.57
2017-09-27T22:36:45.735Z,8.40
2017-09-27T22:39:12.194Z,8.43
2017-09-27T22:41:38.601Z,8.75
2017-09-27T22:44:05.821Z,8.80
2017-09-27T22:46:33.014Z,9.30
2017-09-27T22:48:59.450Z,9.52
2017-09-27T22:51:25.938Z,9.40
2017-09-27T22:53:53.164Z,9.55
2017-09-27T22:56:19.622Z,9.30
2017-09-27T22:58:46.057Z,9.50
2017-09-27T23:01:12.481Z,9.63
2017-09-27T23:03:38.886Z,9.38
2017-09-27T23:06:05.328Z,8.90
2017-09-27T23:08:31.790Z,9.00
2017-09-27T23:10:58.265Z,9.18
2017-09-27T23:13:24.750Z,9.52
2017-09-27T23:15:51.230Z,9.27
2017-09-27T23:18:17.665Z,9.55
2017-09-27T23:20:44.113Z,9.32
2017-09-27T23:23:10.524Z,9.23
2017-09-27T23:25:36.952Z,8.55
2017-09-27T23:28:03.422Z,9.23
2017-09-27T23:30:29.868Z,9.00
2017-09-27T23:32:56.288Z,9.02
2017-09-27T23:35:22.762Z,8.80
2017-09-27T23:37:49.970Z,8.95
2017-09-27T23:40:16.437Z,9.55
2017-09-27T23:42:42.847Z,10.80
2017-09-27T23:45:09.324Z,9.38
2017-09-27T23:47:36.474Z,10.15
2017-09-27T23:50:03.613Z,9.18
2017-09-27T23:52:30.821Z,9.00
2017-09-27T23:54:57.245Z,9.48
2017-09-27T23:57:23.728Z,9.63
2017-09-27T23:59:50.918Z,9.77
